sensor_id;sensor_type;location;lat;lon;timestamp;P1;durP1;ratioP1;P2;durP2;ratioP2
14292;SDS011;62290;59.420;17.842;2023-04-03T00:01:11;3.20;;;0.80;;
14292;SDS011;62290;59.420;17.842;2023-04-03T00:03:39;1.17;;;0.60;;
14292;SDS011;62290;59.420;17.842;2023-04-03T00:06:07;2.30;;;0.82;;
14292;SDS011;62290;59.420;17.842;2023-04-03T00:08:37;3.90;;;0.88;;
14292;SDS011;62290;59.420;17.842;2023-04-03T00:11:08;2.10;;;0.85;;
14292;SDS011;62290;59.420;17.842;2023-04-03T00:13:37;1.55;;;0.90;;
14292;SDS011;62290;59.420;17.842;2023-04-03T00:16:06;2.38;;;0.80;;
14292;SDS011;62290;59.420;17.842;2023-04-03T00:18:35;3.60;;;0.90;;
14292;SDS011;62290;59.420;17.842;2023-04-03T00:21:03;2.40;;;1.00;;
14292;SDS011;62290;59.420;17.842;2023-04-03T00:23:32;1.88;;;0.80;;
14292;SDS011;62290;59.420;17.842;2023-04-03T00:26:00;1.88;;;0.65;;
14292;SDS011;62290;59.420;17.842;2023-04-03T00:28:30;1.55;;;0.82;;
14292;SDS011;62290;59.420;17.842;2023-04-03T00:30:58;1.05;;;0.52;;
14292;SDS011;62290;59.420;17.842;2023-04-03T00:33:26;3.15;;;0.80;;
14292;SDS011;62290;59.420;17.842;2023-04-03T00:35:54;0.88;;;0.50;;
14292;SDS011;62290;59.420;17.842;2023-04-03T00:38:23;1.45;;;0.75;;
14292;SDS011;62290;59.420;17.842;2023-04-03T00:40:51;1.67;;;0.82;;
14292;SDS011;62290;59.420;17.842;2023-04-03T00:43:21;1.98;;;0.73;;
14292;SDS011;62290;59.420;17.842;2023-04-03T00:45:52;2.45;;;0.63;;
14292;SDS011;62290;59.420;17.842;2023-04-03T00:48:22;1.55;;;0.73;;
14292;SDS011;62290;59.420;17.842;2023-04-03T00:50:53;2.20;;;0.88;;
14292;SDS011;62290;59.420;17.842;2023-04-03T00:53:23;1.90;;;1.10;;
14292;SDS011;62290;59.420;17.842;2023-04-03T00:55:54;1.67;;;0.70;;
14292;SDS011;62290;59.420;17.842;2023-04-03T00:58:25;1.88;;;0.70;;
14292;SDS011;62290;59.420;17.842;2023-04-03T01:01:00;1.95;;;0.70;;
14292;SDS011;62290;59.420;17.842;2023-04-03T01:03:34;2.80;;;0.60;;
14292;SDS011;62290;59.420;17.842;2023-04-03T01:06:04;2.17;;;1.02;;
14292;SDS011;62290;59.420;17.842;2023-04-03T01:08:32;1.38;;;0.70;;
14292;SDS011;62290;59.420;17.842;2023-04-03T01:11:01;3.03;;;0.75;;
14292;SDS011;62290;59.420;17.842;2023-04-03T01:13:31;2.45;;;0.60;;
14292;SDS011;62290;59.420;17.842;2023-04-03T01:16:02;2.35;;;0.85;;
14292;SDS011;62290;59.420;17.842;2023-04-03T01:18:32;1.63;;;0.70;;
14292;SDS011;62290;59.420;17.842;2023-04-03T01:21:08;2.70;;;0.65;;
14292;SDS011;62290;59.420;17.842;2023-04-03T01:23:59;4.43;;;0.80;;
14292;SDS011;62290;59.420;17.842;2023-04-03T01:26:36;1.45;;;0.73;;
14292;SDS011;62290;59.420;17.842;2023-04-03T01:29:05;2.80;;;0.80;;
14292;SDS011;62290;59.420;17.842;2023-04-03T01:31:43;2.47;;;0.65;;
14292;SDS011;62290;59.420;17.842;2023-04-03T01:34:14;1.65;;;0.82;;
14292;SDS011;62290;59.420;17.842;2023-04-03T01:36:42;1.42;;;0.60;;
14292;SDS011;62290;59.420;17.842;2023-04-03T01:39:10;2.97;;;0.80;;
14292;SDS011;62290;59.420;17.842;2023-04-03T01:41:39;1.77;;;0.55;;
14292;SDS011;62290;59.420;17.842;2023-04-03T01:44:13;2.50;;;0.95;;
14292;SDS011;62290;59.420;17.842;2023-04-03T01:46:42;1.08;;;0.73;;
14292;SDS011;62290;59.420;17.842;2023-04-03T01:49:11;1.27;;;0.57;;
14292;SDS011;62290;59.420;17.842;2023-04-03T01:51:39;2.10;;;0.75;;
14292;SDS011;62290;59.420;17.842;2023-04-03T01:54:07;2.47;;;0.77;;
14292;SDS011;62290;59.420;17.842;2023-04-03T01:56:35;1.42;;;0.60;;
14292;SDS011;62290;59.420;17.842;2023-04-03T01:59:03;1.48;;;0.80;;
14292;SDS011;62290;59.420;17.842;2023-04-03T02:01:31;1.88;;;0.70;;
14292;SDS011;62290;59.420;17.842;2023-04-03T02:04:01;1.75;;;0.80;;
14292;SDS011;62290;59.420;17.842;2023-04-03T02:06:29;2.05;;;0.70;;
14292;SDS011;62290;59.420;17.842;2023-04-03T02:08:57;3.08;;;0.90;;
14292;SDS011;62290;59.420;17.842;2023-04-03T02:11:25;1.67;;;0.70;;
14292;SDS011;62290;59.420;17.842;2023-04-03T02:13:53;3.05;;;0.90;;
14292;SDS011;62290;59.420;17.842;2023-04-03T02:16:21;1.50;;;0.60;;
14292;SDS011;62290;59.420;17.842;2023-04-03T02:18:49;1.02;;;0.60;;
14292;SDS011;62290;59.420;17.842;2023-04-03T02:21:19;3.50;;;0.90;;
14292;SDS011;62290;59.420;17.842;2023-04-03T02:23:47;1.58;;;0.77;;
14292;SDS011;62290;59.420;17.842;2023-04-03T02:26:15;2.30;;;0.57;;
14292;SDS011;62290;59.420;17.842;2023-04-03T02:28:44;3.28;;;0.70;;
14292;SDS011;62290;59.420;17.842;2023-04-03T02:31:12;2.83;;;0.57;;
14292;SDS011;62290;59.420;17.842;2023-04-03T02:33:42;3.33;;;0.63;;
14292;SDS011;62290;59.420;17.842;2023-04-03T02:36:13;0.98;;;0.47;;
14292;SDS011;62290;59.420;17.842;2023-04-03T02:38:48;2.20;;;0.55;;
14292;SDS011;62290;59.420;17.842;2023-04-03T02:41:16;2.05;;;0.70;;
14292;SDS011;62290;59.420;17.842;2023-04-03T02:43:44;2.00;;;0.70;;
14292;SDS011;62290;59.420;17.842;2023-04-03T02:46:12;1.70;;;0.50;;
14292;SDS011;62290;59.420;17.842;2023-04-03T02:48:41;1.33;;;0.70;;
14292;SDS011;62290;59.420;17.842;2023-04-03T02:51:09;0.52;;;0.50;;
14292;SDS011;62290;59.420;17.842;2023-04-03T02:53:37;2.50;;;0.80;;
14292;SDS011;62290;59.420;17.842;2023-04-03T02:56:13;0.80;;;0.60;;
14292;SDS011;62290;59.420;17.842;2023-04-03T02:58:41;1.65;;;0.88;;
14292;SDS011;62290;59.420;17.842;2023-04-03T03:01:09;1.75;;;0.60;;
14292;SDS011;62290;59.420;17.842;2023-04-03T03:03:38;1.05;;;0.50;;
14292;SDS011;62290;59.420;17.842;2023-04-03T03:06:07;3.40;;;0.82;;
14292;SDS011;62290;59.420;17.842;2023-04-03T03:08:38;1.88;;;0.60;;
14292;SDS011;62290;59.420;17.842;2023-04-03T03:11:07;2.58;;;0.85;;
14292;SDS011;62290;59.420;17.842;2023-04-03T03:13:37;1.90;;;0.75;;
14292;SDS011;62290;59.420;17.842;2023-04-03T03:16:06;2.70;;;0.80;;
14292;SDS011;62290;59.420;17.842;2023-04-03T03:18:34;2.53;;;0.80;;
14292;SDS011;62290;59.420;17.842;2023-04-03T03:21:03;1.98;;;0.85;;
14292;SDS011;62290;59.420;17.842;2023-04-03T03:23:32;1.27;;;0.70;;
14292;SDS011;62290;59.420;17.842;2023-04-03T03:26:01;2.00;;;0.75;;
14292;SDS011;62290;59.420;17.842;2023-04-03T03:28:33;2.15;;;0.88;;
14292;SDS011;62290;59.420;17.842;2023-04-03T03:31:05;6.25;;;1.15;;
14292;SDS011;62290;59.420;17.842;2023-04-03T03:33:36;2.38;;;0.75;;
14292;SDS011;62290;59.420;17.842;2023-04-03T03:36:04;2.05;;;0.90;;
14292;SDS011;62290;59.420;17.842;2023-04-03T03:38:35;2.95;;;0.82;;
14292;SDS011;62290;59.420;17.842;2023-04-03T03:41:03;2.47;;;0.88;;
14292;SDS011;62290;59.420;17.842;2023-04-03T03:43:33;2.92;;;1.10;;
14292;SDS011;62290;59.420;17.842;2023-04-03T03:46:04;1.50;;;0.90;;
14292;SDS011;62290;59.420;17.842;2023-04-03T03:48:32;3.30;;;0.85;;
14292;SDS011;62290;59.420;17.842;2023-04-03T03:51:01;2.25;;;0.80;;
14292;SDS011;62290;59.420;17.842;2023-04-03T03:53:33;3.42;;;0.95;;
14292;SDS011;62290;59.420;17.842;2023-04-03T03:56:05;1.48;;;1.00;;
14292;SDS011;62290;59.420;17.842;2023-04-03T03:58:35;3.08;;;1.10;;
14292;SDS011;62290;59.420;17.842;2023-04-03T04:01:05;1.63;;;0.80;;
14292;SDS011;62290;59.420;17.842;2023-04-03T04:03:40;2.50;;;1.20;;
14292;SDS011;62290;59.420;17.842;2023-04-03T04:06:11;2.30;;;0.80;;
14292;SDS011;62290;59.420;17.842;2023-04-03T04:08:39;2.28;;;0.85;;
14292;SDS011;62290;59.420;17.842;2023-04-03T04:11:09;1.20;;;0.65;;
14292;SDS011;62290;59.420;17.842;2023-04-03T04:13:39;4.60;;;0.85;;
14292;SDS011;62290;59.420;17.842;2023-04-03T04:16:10;3.08;;;0.70;;
14292;SDS011;62290;59.420;17.842;2023-04-03T04:18:39;4.47;;;0.93;;
14292;SDS011;62290;59.420;17.842;2023-04-03T04:21:07;3.97;;;1.02;;
14292;SDS011;62290;59.420;17.842;2023-04-03T04:23:37;1.92;;;0.80;;
14292;SDS011;62290;59.420;17.842;2023-04-03T04:26:05;2.10;;;0.93;;
14292;SDS011;62290;59.420;17.842;2023-04-03T04:28:35;2.17;;;0.68;;
14292;SDS011;62290;59.420;17.842;2023-04-03T04:31:04;2.42;;;0.90;;
14292;SDS011;62290;59.420;17.842;2023-04-03T04:33:34;1.80;;;0.70;;
14292;SDS011;62290;59.420;17.842;2023-04-03T04:36:04;3.30;;;0.85;;
14292;SDS011;62290;59.420;17.842;2023-04-03T04:38:32;4.15;;;0.90;;
14292;SDS011;62290;59.420;17.842;2023-04-03T04:41:01;16.10;;;0.85;;
14292;SDS011;62290;59.420;17.842;2023-04-03T04:43:29;1.67;;;0.63;;
14292;SDS011;62290;59.420;17.842;2023-04-03T04:46:01;2.53;;;1.05;;
14292;SDS011;62290;59.420;17.842;2023-04-03T04:48:34;3.03;;;0.85;;
14292;SDS011;62290;59.420;17.842;2023-04-03T04:51:04;2.47;;;1.05;;
14292;SDS011;62290;59.420;17.842;2023-04-03T04:53:35;3.33;;;0.93;;
14292;SDS011;62290;59.420;17.842;2023-04-03T04:56:04;3.00;;;1.00;;
14292;SDS011;62290;59.420;17.842;2023-04-03T04:58:34;1.98;;;0.93;;
14292;SDS011;62290;59.420;17.842;2023-04-03T05:01:03;2.72;;;1.27;;
14292;SDS011;62290;59.420;17.842;2023-04-03T05:03:36;4.22;;;0.90;;
14292;SDS011;62290;59.420;17.842;2023-04-03T05:06:05;2.60;;;0.98;;
14292;SDS011;62290;59.420;17.842;2023-04-03T05:08:34;3.30;;;1.10;;
14292;SDS011;62290;59.420;17.842;2023-04-03T05:11:03;2.20;;;0.98;;
14292;SDS011;62290;59.420;17.842;2023-04-03T05:13:31;1.42;;;0.60;;
14292;SDS011;62290;59.420;17.842;2023-04-03T05:16:00;3.00;;;0.70;;
14292;SDS011;62290;59.420;17.842;2023-04-03T05:18:29;3.78;;;0.90;;
14292;SDS011;62290;59.420;17.842;2023-04-03T05:21:03;2.85;;;1.08;;
14292;SDS011;62290;59.420;17.842;2023-04-03T05:23:31;2.90;;;0.77;;
14292;SDS011;62290;59.420;17.842;2023-04-03T05:26:01;3.00;;;1.15;;
14292;SDS011;62290;59.420;17.842;2023-04-03T05:28:30;2.97;;;1.15;;
14292;SDS011;62290;59.420;17.842;2023-04-03T05:30:58;1.38;;;0.80;;
14292;SDS011;62290;59.420;17.842;2023-04-03T05:33:32;3.17;;;0.85;;
14292;SDS011;62290;59.420;17.842;2023-04-03T05:36:03;2.60;;;1.23;;
14292;SDS011;62290;59.420;17.842;2023-04-03T05:38:37;4.53;;;0.75;;
14292;SDS011;62290;59.420;17.842;2023-04-03T05:41:05;1.73;;;0.68;;
14292;SDS011;62290;59.420;17.842;2023-04-03T05:43:34;3.30;;;1.00;;
14292;SDS011;62290;59.420;17.842;2023-04-03T05:46:08;2.55;;;0.85;;
14292;SDS011;62290;59.420;17.842;2023-04-03T05:48:38;4.63;;;1.05;;
14292;SDS011;62290;59.420;17.842;2023-04-03T05:51:12;1.95;;;0.70;;
14292;SDS011;62290;59.420;17.842;2023-04-03T05:53:43;1.73;;;0.88;;
14292;SDS011;62290;59.420;17.842;2023-04-03T05:56:12;4.68;;;1.35;;
14292;SDS011;62290;59.420;17.842;2023-04-03T05:58:40;2.60;;;1.00;;
14292;SDS011;62290;59.420;17.842;2023-04-03T06:01:09;2.30;;;1.10;;
14292;SDS011;62290;59.420;17.842;2023-04-03T06:03:37;6.38;;;1.20;;
14292;SDS011;62290;59.420;17.842;2023-04-03T06:06:11;4.13;;;1.05;;
14292;SDS011;62290;59.420;17.842;2023-04-03T06:08:40;2.10;;;1.00;;
14292;SDS011;62290;59.420;17.842;2023-04-03T06:11:10;2.83;;;0.95;;
14292;SDS011;62290;59.420;17.842;2023-04-03T06:13:38;3.25;;;0.77;;
14292;SDS011;62290;59.420;17.842;2023-04-03T06:16:08;2.25;;;0.80;;
14292;SDS011;62290;59.420;17.842;2023-04-03T06:18:38;1.98;;;1.00;;
14292;SDS011;62290;59.420;17.842;2023-04-03T06:21:08;2.42;;;0.82;;
14292;SDS011;62290;59.420;17.842;2023-04-03T06:23:37;2.20;;;0.80;;
14292;SDS011;62290;59.420;17.842;2023-04-03T06:26:07;1.73;;;1.00;;
14292;SDS011;62290;59.420;17.842;2023-04-03T06:28:35;2.03;;;1.00;;
14292;SDS011;62290;59.420;17.842;2023-04-03T06:31:03;1.27;;;0.57;;
14292;SDS011;62290;59.420;17.842;2023-04-03T06:33:31;4.03;;;1.20;;
14292;SDS011;62290;59.420;17.842;2023-04-03T06:35:59;3.65;;;1.00;;
14292;SDS011;62290;59.420;17.842;2023-04-03T06:38:27;2.33;;;0.70;;
14292;SDS011;62290;59.420;17.842;2023-04-03T06:40:57;1.88;;;0.88;;
14292;SDS011;62290;59.420;17.842;2023-04-03T06:43:26;4.80;;;1.20;;
14292;SDS011;62290;59.420;17.842;2023-04-03T06:45:54;1.60;;;0.70;;
14292;SDS011;62290;59.420;17.842;2023-04-03T06:48:22;2.40;;;0.70;;
14292;SDS011;62290;59.420;17.842;2023-04-03T06:50:50;2.42;;;0.70;;
14292;SDS011;62290;59.420;17.842;2023-04-03T06:53:18;4.80;;;0.93;;
14292;SDS011;62290;59.420;17.842;2023-04-03T06:55:47;3.65;;;1.20;;
14292;SDS011;62290;59.420;17.842;2023-04-03T06:58:16;3.60;;;0.90;;
14292;SDS011;62290;59.420;17.842;2023-04-03T07:00:47;1.67;;;0.80;;
14292;SDS011;62290;59.420;17.842;2023-04-03T07:03:15;3.97;;;1.20;;
14292;SDS011;62290;59.420;17.842;2023-04-03T07:05:44;3.58;;;1.10;;
14292;SDS011;62290;59.420;17.842;2023-04-03T07:08:12;2.13;;;0.90;;
14292;SDS011;62290;59.420;17.842;2023-04-03T07:10:40;3.03;;;0.90;;
14292;SDS011;62290;59.420;17.842;2023-04-03T07:13:08;3.03;;;0.82;;
14292;SDS011;62290;59.420;17.842;2023-04-03T07:15:37;7.15;;;1.25;;
14292;SDS011;62290;59.420;17.842;2023-04-03T07:18:06;2.30;;;0.90;;
14292;SDS011;62290;59.420;17.842;2023-04-03T07:20:34;2.97;;;0.77;;
14292;SDS011;62290;59.420;17.842;2023-04-03T07:23:02;2.40;;;0.95;;
14292;SDS011;62290;59.420;17.842;2023-04-03T07:25:31;2.17;;;1.13;;
14292;SDS011;62290;59.420;17.842;2023-04-03T07:28:00;2.33;;;1.05;;
14292;SDS011;62290;59.420;17.842;2023-04-03T07:30:28;2.28;;;0.82;;
14292;SDS011;62290;59.420;17.842;2023-04-03T07:32:57;4.75;;;1.10;;
14292;SDS011;62290;59.420;17.842;2023-04-03T07:35:26;2.03;;;0.70;;
14292;SDS011;62290;59.420;17.842;2023-04-03T07:37:54;10.38;;;0.90;;
14292;SDS011;62290;59.420;17.842;2023-04-03T07:40:22;1.75;;;0.70;;
14292;SDS011;62290;59.420;17.842;2023-04-03T07:42:50;3.63;;;0.90;;
14292;SDS011;62290;59.420;17.842;2023-04-03T07:45:18;7.45;;;1.20;;
14292;SDS011;62290;59.420;17.842;2023-04-03T07:47:46;4.60;;;0.70;;
14292;SDS011;62290;59.420;17.842;2023-04-03T07:50:17;1.33;;;0.80;;
14292;SDS011;62290;59.420;17.842;2023-04-03T07:52:45;4.03;;;0.90;;
14292;SDS011;62290;59.420;17.842;2023-04-03T07:55:13;4.03;;;0.73;;
14292;SDS011;62290;59.420;17.842;2023-04-03T07:57:41;5.90;;;1.08;;
14292;SDS011;62290;59.420;17.842;2023-04-03T08:00:11;3.65;;;1.02;;
14292;SDS011;62290;59.420;17.842;2023-04-03T08:02:40;4.05;;;1.10;;
14292;SDS011;62290;59.420;17.842;2023-04-03T08:05:09;2.90;;;0.90;;
14292;SDS011;62290;59.420;17.842;2023-04-03T08:07:39;4.63;;;1.08;;
14292;SDS011;62290;59.420;17.842;2023-04-03T08:10:07;2.08;;;1.10;;
14292;SDS011;62290;59.420;17.842;2023-04-03T08:12:35;11.05;;;1.20;;
14292;SDS011;62290;59.420;17.842;2023-04-03T08:15:04;15.02;;;2.00;;
14292;SDS011;62290;59.420;17.842;2023-04-03T08:17:33;3.85;;;1.48;;
14292;SDS011;62290;59.420;17.842;2023-04-03T08:20:02;7.95;;;1.00;;
14292;SDS011;62290;59.420;17.842;2023-04-03T08:22:32;4.22;;;1.40;;
14292;SDS011;62290;59.420;17.842;2023-04-03T08:25:02;3.80;;;1.25;;
14292;SDS011;62290;59.420;17.842;2023-04-03T08:27:31;2.88;;;0.82;;
14292;SDS011;62290;59.420;17.842;2023-04-03T08:29:59;12.20;;;2.13;;
14292;SDS011;62290;59.420;17.842;2023-04-03T08:32:27;8.30;;;1.52;;
14292;SDS011;62290;59.420;17.842;2023-04-03T08:34:55;8.18;;;1.30;;
14292;SDS011;62290;59.420;17.842;2023-04-03T08:37:23;3.78;;;1.02;;
14292;SDS011;62290;59.420;17.842;2023-04-03T08:39:52;3.83;;;1.35;;
14292;SDS011;62290;59.420;17.842;2023-04-03T08:42:27;5.55;;;0.90;;
14292;SDS011;62290;59.420;17.842;2023-04-03T08:45:05;4.97;;;1.05;;
14292;SDS011;62290;59.420;17.842;2023-04-03T08:47:40;4.03;;;1.05;;
14292;SDS011;62290;59.420;17.842;2023-04-03T08:50:13;11.50;;;1.98;;
14292;SDS011;62290;59.420;17.842;2023-04-03T08:52:45;6.47;;;1.45;;
14292;SDS011;62290;59.420;17.842;2023-04-03T08:55:20;13.90;;;1.50;;
14292;SDS011;62290;59.420;17.842;2023-04-03T08:57:57;10.60;;;1.70;;
14292;SDS011;62290;59.420;17.842;2023-04-03T09:00:30;4.88;;;0.93;;
14292;SDS011;62290;59.420;17.842;2023-04-03T09:03:05;4.47;;;1.05;;
14292;SDS011;62290;59.420;17.842;2023-04-03T09:05:40;6.95;;;1.40;;
14292;SDS011;62290;59.420;17.842;2023-04-03T09:08:14;4.85;;;1.20;;
14292;SDS011;62290;59.420;17.842;2023-04-03T09:10:49;3.50;;;0.90;;
14292;SDS011;62290;59.420;17.842;2023-04-03T09:13:24;12.02;;;1.92;;
14292;SDS011;62290;59.420;17.842;2023-04-03T09:16:12;44.58;;;9.65;;
14292;SDS011;62290;59.420;17.842;2023-04-03T09:18:48;32.95;;;7.10;;
14292;SDS011;62290;59.420;17.842;2023-04-03T09:21:24;23.80;;;5.18;;
14292;SDS011;62290;59.420;17.842;2023-04-03T09:23:57;15.30;;;4.28;;
14292;SDS011;62290;59.420;17.842;2023-04-03T09:26:29;17.83;;;3.55;;
14292;SDS011;62290;59.420;17.842;2023-04-03T09:29:05;16.40;;;3.17;;
14292;SDS011;62290;59.420;17.842;2023-04-03T09:31:36;12.10;;;3.08;;
14292;SDS011;62290;59.420;17.842;2023-04-03T09:34:11;6.45;;;1.75;;
14292;SDS011;62290;59.420;17.842;2023-04-03T09:36:46;8.63;;;1.90;;
14292;SDS011;62290;59.420;17.842;2023-04-03T09:39:15;8.20;;;1.90;;
14292;SDS011;62290;59.420;17.842;2023-04-03T09:41:54;6.18;;;1.70;;
14292;SDS011;62290;59.420;17.842;2023-04-03T09:44:26;9.25;;;2.17;;
14292;SDS011;62290;59.420;17.842;2023-04-03T09:46:56;13.50;;;3.00;;
14292;SDS011;62290;59.420;17.842;2023-04-03T09:49:24;14.15;;;2.47;;
14292;SDS011;62290;59.420;17.842;2023-04-03T09:51:53;13.20;;;2.65;;
14292;SDS011;62290;59.420;17.842;2023-04-03T09:54:25;11.50;;;2.95;;
14292;SDS011;62290;59.420;17.842;2023-04-03T09:57:00;11.65;;;2.30;;
14292;SDS011;62290;59.420;17.842;2023-04-03T09:59:33;7.35;;;2.28;;
14292;SDS011;62290;59.420;17.842;2023-04-03T10:02:02;8.07;;;2.20;;
14292;SDS011;62290;59.420;17.842;2023-04-03T10:04:44;6.85;;;2.00;;
14292;SDS011;62290;59.420;17.842;2023-04-03T10:07:28;7.75;;;1.55;;
14292;SDS011;62290;59.420;17.842;2023-04-03T10:09:59;6.25;;;2.28;;
14292;SDS011;62290;59.420;17.842;2023-04-03T10:12:30;6.70;;;2.13;;
14292;SDS011;62290;59.420;17.842;2023-04-03T10:14:59;7.57;;;1.90;;
14292;SDS011;62290;59.420;17.842;2023-04-03T10:17:32;10.02;;;2.08;;
14292;SDS011;62290;59.420;17.842;2023-04-03T10:20:17;5.53;;;1.77;;
14292;SDS011;62290;59.420;17.842;2023-04-03T10:23:02;7.22;;;1.50;;
14292;SDS011;62290;59.420;17.842;2023-04-03T10:25:43;4.40;;;1.50;;
14292;SDS011;62290;59.420;17.842;2023-04-03T10:28:20;5.55;;;1.33;;
14292;SDS011;62290;59.420;17.842;2023-04-03T10:30:58;7.53;;;1.80;;
14292;SDS011;62290;59.420;17.842;2023-04-03T10:33:50;3.80;;;1.50;;
14292;SDS011;62290;59.420;17.842;2023-04-03T10:36:25;4.88;;;1.23;;
14292;SDS011;62290;59.420;17.842;2023-04-03T10:39:03;2.72;;;1.23;;
14292;SDS011;62290;59.420;17.842;2023-04-03T10:41:43;3.22;;;1.30;;
14292;SDS011;62290;59.420;17.842;2023-04-03T10:44:32;5.25;;;1.45;;
14292;SDS011;62290;59.420;17.842;2023-04-03T10:47:11;2.90;;;1.13;;
14292;SDS011;62290;59.420;17.842;2023-04-03T10:49:48;3.13;;;1.25;;
14292;SDS011;62290;59.420;17.842;2023-04-03T10:52:27;4.85;;;1.67;;
14292;SDS011;62290;59.420;17.842;2023-04-03T10:55:27;3.40;;;0.88;;
14292;SDS011;62290;59.420;17.842;2023-04-03T10:58:02;4.50;;;1.00;;
14292;SDS011;62290;59.420;17.842;2023-04-03T11:00:35;5.22;;;1.33;;
14292;SDS011;62290;59.420;17.842;2023-04-03T11:03:10;3.30;;;1.05;;
14292;SDS011;62290;59.420;17.842;2023-04-03T11:05:42;3.83;;;0.95;;
14292;SDS011;62290;59.420;17.842;2023-04-03T11:08:13;2.50;;;1.00;;
14292;SDS011;62290;59.420;17.842;2023-04-03T11:10:51;1.63;;;0.77;;
14292;SDS011;62290;59.420;17.842;2023-04-03T11:13:22;1.83;;;1.00;;
14292;SDS011;62290;59.420;17.842;2023-04-03T11:15:58;4.53;;;1.25;;
14292;SDS011;62290;59.420;17.842;2023-04-03T11:18:28;5.35;;;1.00;;
14292;SDS011;62290;59.420;17.842;2023-04-03T11:21:03;6.60;;;1.08;;
14292;SDS011;62290;59.420;17.842;2023-04-03T11:23:36;4.10;;;0.88;;
14292;SDS011;62290;59.420;17.842;2023-04-03T11:26:15;2.05;;;0.70;;
14292;SDS011;62290;59.420;17.842;2023-04-03T11:28:45;1.80;;;0.90;;
14292;SDS011;62290;59.420;17.842;2023-04-03T11:31:17;5.00;;;0.98;;
14292;SDS011;62290;59.420;17.842;2023-04-03T11:34:02;2.63;;;0.98;;
14292;SDS011;62290;59.420;17.842;2023-04-03T11:36:39;1.83;;;0.82;;
14292;SDS011;62290;59.420;17.842;2023-04-03T11:39:16;1.85;;;0.57;;
14292;SDS011;62290;59.420;17.842;2023-04-03T11:41:50;6.97;;;1.15;;
14292;SDS011;62290;59.420;17.842;2023-04-03T11:44:33;3.83;;;1.15;;
14292;SDS011;62290;59.420;17.842;2023-04-03T11:47:04;1.52;;;0.80;;
14292;SDS011;62290;59.420;17.842;2023-04-03T11:49:56;2.10;;;1.00;;
14292;SDS011;62290;59.420;17.842;2023-04-03T11:55:43;4.55;;;1.20;;
14292;SDS011;62290;59.420;17.842;2023-04-03T11:58:22;4.13;;;1.40;;
14292;SDS011;62290;59.420;17.842;2023-04-03T12:00:52;4.35;;;1.25;;
14292;SDS011;62290;59.420;17.842;2023-04-03T12:06:50;2.00;;;1.05;;
14292;SDS011;62290;59.420;17.842;2023-04-03T12:09:27;3.75;;;1.10;;
14292;SDS011;62290;59.420;17.842;2023-04-03T12:12:28;4.53;;;1.10;;
14292;SDS011;62290;59.420;17.842;2023-04-03T12:15:11;16.50;;;1.80;;
14292;SDS011;62290;59.420;17.842;2023-04-03T12:17:50;5.38;;;1.00;;
14292;SDS011;62290;59.420;17.842;2023-04-03T12:23:27;6.72;;;1.45;;
14292;SDS011;62290;59.420;17.842;2023-04-03T12:26:05;4.70;;;1.20;;
14292;SDS011;62290;59.420;17.842;2023-04-03T12:28:49;2.00;;;0.98;;
14292;SDS011;62290;59.420;17.842;2023-04-03T12:31:20;4.47;;;0.82;;
14292;SDS011;62290;59.420;17.842;2023-04-03T12:33:59;6.78;;;1.15;;
14292;SDS011;62290;59.420;17.842;2023-04-03T12:36:39;1.75;;;1.00;;
14292;SDS011;62290;59.420;17.842;2023-04-03T12:39:25;2.80;;;0.85;;
14292;SDS011;62290;59.420;17.842;2023-04-03T12:45:10;2.70;;;0.93;;
14292;SDS011;62290;59.420;17.842;2023-04-03T12:47:45;5.00;;;1.15;;
14292;SDS011;62290;59.420;17.842;2023-04-03T12:50:20;2.65;;;0.70;;
14292;SDS011;62290;59.420;17.842;2023-04-03T12:52:52;4.32;;;1.00;;
14292;SDS011;62290;59.420;17.842;2023-04-03T12:55:26;1.80;;;0.70;;
14292;SDS011;62290;59.420;17.842;2023-04-03T12:57:54;4.03;;;0.95;;
14292;SDS011;62290;59.420;17.842;2023-04-03T13:00:27;4.78;;;1.00;;
14292;SDS011;62290;59.420;17.842;2023-04-03T13:02:59;2.10;;;0.80;;
14292;SDS011;62290;59.420;17.842;2023-04-03T13:05:28;4.78;;;0.88;;
14292;SDS011;62290;59.420;17.842;2023-04-03T13:08:03;2.58;;;0.60;;
14292;SDS011;62290;59.420;17.842;2023-04-03T13:10:35;3.95;;;1.15;;
14292;SDS011;62290;59.420;17.842;2023-04-03T13:13:13;3.08;;;0.75;;
14292;SDS011;62290;59.420;17.842;2023-04-03T13:15:43;1.25;;;0.50;;
14292;SDS011;62290;59.420;17.842;2023-04-03T13:18:26;3.88;;;0.82;;
14292;SDS011;62290;59.420;17.842;2023-04-03T13:20:58;4.75;;;1.30;;
14292;SDS011;62290;59.420;17.842;2023-04-03T13:23:30;2.58;;;1.00;;
14292;SDS011;62290;59.420;17.842;2023-04-03T13:26:01;4.00;;;0.73;;
14292;SDS011;62290;59.420;17.842;2023-04-03T13:28:31;3.00;;;0.95;;
14292;SDS011;62290;59.420;17.842;2023-04-03T13:31:05;3.55;;;1.02;;
14292;SDS011;62290;59.420;17.842;2023-04-03T13:33:38;5.75;;;1.15;;
14292;SDS011;62290;59.420;17.842;2023-04-03T13:36:22;1.40;;;0.70;;
14292;SDS011;62290;59.420;17.842;2023-04-03T13:38:57;3.63;;;0.90;;
14292;SDS011;62290;59.420;17.842;2023-04-03T13:41:30;4.72;;;1.10;;
14292;SDS011;62290;59.420;17.842;2023-04-03T13:44:14;2.00;;;0.70;;
14292;SDS011;62290;59.420;17.842;2023-04-03T13:46:44;1.10;;;0.70;;
14292;SDS011;62290;59.420;17.842;2023-04-03T13:49:19;4.10;;;0.77;;
14292;SDS011;62290;59.420;17.842;2023-04-03T13:51:49;4.18;;;0.93;;
14292;SDS011;62290;59.420;17.842;2023-04-03T13:54:33;1.65;;;0.70;;
14292;SDS011;62290;59.420;17.842;2023-04-03T13:57:10;7.05;;;0.77;;
14292;SDS011;62290;59.420;17.842;2023-04-03T13:59:40;2.78;;;0.88;;
14292;SDS011;62290;59.420;17.842;2023-04-03T14:02:12;2.83;;;0.98;;
14292;SDS011;62290;59.420;17.842;2023-04-03T14:04:45;3.45;;;0.98;;
14292;SDS011;62290;59.420;17.842;2023-04-03T14:07:17;3.33;;;0.68;;
14292;SDS011;62290;59.420;17.842;2023-04-03T14:09:46;2.40;;;0.75;;
14292;SDS011;62290;59.420;17.842;2023-04-03T14:12:17;2.42;;;0.68;;
14292;SDS011;62290;59.420;17.842;2023-04-03T14:14:57;2.47;;;0.63;;
14292;SDS011;62290;59.420;17.842;2023-04-03T14:17:26;27.13;;;1.58;;
14292;SDS011;62290;59.420;17.842;2023-04-03T14:19:55;6.85;;;1.10;;
14292;SDS011;62290;59.420;17.842;2023-04-03T14:22:24;6.03;;;1.10;;
14292;SDS011;62290;59.420;17.842;2023-04-03T14:24:55;3.30;;;1.00;;
14292;SDS011;62290;59.420;17.842;2023-04-03T14:27:26;5.85;;;0.80;;
14292;SDS011;62290;59.420;17.842;2023-04-03T14:29:55;5.82;;;0.73;;
14292;SDS011;62290;59.420;17.842;2023-04-03T14:32:25;1.35;;;0.70;;
14292;SDS011;62290;59.420;17.842;2023-04-03T14:34:54;2.70;;;0.88;;
14292;SDS011;62290;59.420;17.842;2023-04-03T14:37:24;13.40;;;1.00;;
14292;SDS011;62290;59.420;17.842;2023-04-03T14:39:54;5.70;;;1.00;;
14292;SDS011;62290;59.420;17.842;2023-04-03T14:42:27;4.13;;;1.13;;
14292;SDS011;62290;59.420;17.842;2023-04-03T14:45:00;4.10;;;1.13;;
14292;SDS011;62290;59.420;17.842;2023-04-03T14:47:33;2.20;;;1.00;;
14292;SDS011;62290;59.420;17.842;2023-04-03T14:50:06;1.40;;;0.80;;
14292;SDS011;62290;59.420;17.842;2023-04-03T14:52:35;4.65;;;1.05;;
14292;SDS011;62290;59.420;17.842;2023-04-03T14:55:05;5.22;;;1.48;;
14292;SDS011;62290;59.420;17.842;2023-04-03T14:57:35;1.02;;;0.70;;
14292;SDS011;62290;59.420;17.842;2023-04-03T15:00:07;6.50;;;1.50;;
14292;SDS011;62290;59.420;17.842;2023-04-03T15:02:39;4.25;;;0.88;;
14292;SDS011;62290;59.420;17.842;2023-04-03T15:05:09;2.35;;;0.60;;
14292;SDS011;62290;59.420;17.842;2023-04-03T15:07:39;4.75;;;1.08;;
14292;SDS011;62290;59.420;17.842;2023-04-03T15:10:16;1.10;;;0.50;;
14292;SDS011;62290;59.420;17.842;2023-04-03T15:12:47;1.58;;;0.60;;